Current Weather Conditions: station AJXA2

sailwx.info

Wind from 060 at 35 knots gusting 78

Air temperature -8.6° C
Dewpoint -19.7° C

Last reported at 2020-Jan-18 15:12 UTC.
Time now 2020-Jan-18 15:39 UTC

Location: N 58°17' W 134°24'.
View on Google Maps.

See reports from other nearby stations

  
Tides and Currents Weather Stations Pressure Air Temp Water Temp Dewpoint Dewpoint Depression Visibility Wind Speed Wind Dir Waves Ship Positions
date/time (UTC)wind fromknots sea level pressurealtimeterstation pressurevisibilityair tempwater tempwave heightnotes
2020-Jan-18 15:12 060 35 gusting 78 -8.6
2020-Jan-18 15:02 060 29 gusting 52 -8.5
2020-Jan-18 14:52 050 34 gusting 63 -8.5
2020-Jan-18 14:42 060 34 gusting 62 -8.6
2020-Jan-18 14:32 050 35 gusting 72 -8.6
2020-Jan-18 14:22 050 38 gusting 78 -8.7
2020-Jan-18 14:12 050 34 gusting 71 -8.6
2020-Jan-18 14:02 070 27 gusting 62 -8.7
2020-Jan-18 13:52 050 32 gusting 65 -8.6
2020-Jan-18 13:42 050 33 gusting 71 -8.6
2020-Jan-18 13:32 050 33 gusting 69 -8.7
2020-Jan-18 13:22 050 20 gusting 54 -8.6
2020-Jan-18 13:12 060 24 gusting 62 -8.5
2020-Jan-18 13:02 050 25 gusting 48 -8.6
2020-Jan-18 12:52 040 24 gusting 52 -8.7
2020-Jan-18 12:42 050 22 gusting 62 -8.8
2020-Jan-18 12:32 050 22 gusting 46 -8.8
2020-Jan-18 12:22 090 19 gusting 48 -8.7
2020-Jan-18 12:12 080 21 gusting 59 -9.0
2020-Jan-18 12:02 050 22 gusting 44 -9.3
2020-Jan-18 11:52 070 17 gusting 38 -9.0
2020-Jan-18 11:42 060 17 gusting 39 -9.0
2020-Jan-18 11:32 070 15 gusting 41 -9.3
2020-Jan-18 11:22 070 13 gusting 28 -9.3
2020-Jan-18 11:12 090 18 gusting 44 -9.3
2020-Jan-18 11:02 060 15 gusting 38 -9.3
2020-Jan-18 10:52 070 13 gusting 44 -9.4
2020-Jan-18 10:42 060 13 gusting 34 -9.6
2020-Jan-18 10:32 070 20 gusting 46 -9.5
2020-Jan-18 10:22 060 22 gusting 45 -9.7
2020-Jan-18 10:12 050 21 gusting 51 -9.9
2020-Jan-18 10:02 060 17 -10.0
2020-Jan-18 09:52 050 33 gusting 71 -10.2
2020-Jan-18 09:42 050 24 gusting 59 -10.1
2020-Jan-18 09:32 060 28 gusting 56 -10.4
2020-Jan-18 09:22 050 32 gusting 56 -10.4
2020-Jan-18 09:12 060 21 gusting 40 -10.2
2020-Jan-18 09:02 050 33 gusting 60 -10.2
2020-Jan-18 08:52 050 35 gusting 74 -10.1
2020-Jan-18 08:42 050 41 gusting 69 -10.2
2020-Jan-18 08:32 050 42 gusting 62 -10.3
2020-Jan-18 08:22 050 39 gusting 66 -10.3
2020-Jan-18 08:12 050 35 gusting 76 -10.1
2020-Jan-18 08:02 050 36 gusting 69 -10.2
2020-Jan-18 07:52 050 41 gusting 63 -10.3
2020-Jan-18 07:42 050 41 gusting 75 -10.3
2020-Jan-18 07:32 050 34 gusting 66 -10.2
2020-Jan-18 07:22 050 38 gusting 63 -10.5
2020-Jan-18 07:12 050 39 gusting 62 -10.3
2020-Jan-18 07:02 050 41 gusting 62 -10.4
2020-Jan-18 06:52 050 40 gusting 66 -10.4
2020-Jan-18 06:42 050 35 gusting 58 -10.5
2020-Jan-18 06:32 050 39 gusting 62 -10.5
2020-Jan-18 06:22 050 39 gusting 69 -10.6
2020-Jan-18 06:12 050 35 gusting 72 -10.6
2020-Jan-18 06:02 050 40 gusting 73 -10.4
2020-Jan-18 05:52 050 32 gusting 52 -10.5
2020-Jan-18 05:42 050 34 gusting 59 -10.5
2020-Jan-18 05:32 050 28 gusting 63 -10.5
2020-Jan-18 05:22 050 31 gusting 55 -10.6
2020-Jan-18 05:12 050 33 gusting 53 -10.5
2020-Jan-18 05:02 050 29 gusting 55 -10.6
2020-Jan-18 04:52 060 26 gusting 51 -10.6
2020-Jan-18 04:42 060 24 gusting 52 -10.6
2020-Jan-18 04:32 050 32 gusting 55 -10.5
2020-Jan-18 04:22 050 31 gusting 48 -10.5
2020-Jan-18 04:12 050 36 gusting 62 -10.6
2020-Jan-18 04:02 050 36 gusting 67 -10.5
2020-Jan-18 03:52 050 27 gusting 52 -10.3
2020-Jan-18 03:42 050 34 gusting 62 -10.8
2020-Jan-18 03:32 050 28 gusting 61 -10.6
2020-Jan-18 03:22 050 34 gusting 60 -10.8
2020-Jan-18 03:12 050 27 gusting 60 -10.7
2020-Jan-18 03:02 050 27 gusting 49 -10.8
2020-Jan-18 02:52 050 34 gusting 62 -10.9
2020-Jan-18 02:42 050 34 gusting 62 -10.8
2020-Jan-18 02:32 040 35 gusting 63 -10.7
2020-Jan-18 02:22 050 35 gusting 69 -10.8
2020-Jan-18 02:12 050 36 gusting 62 -10.9
2020-Jan-18 02:02 050 33 gusting 59 -11.1
2020-Jan-18 01:52 040 34 gusting 69 -10.8
2020-Jan-18 01:42 040 28 gusting 53 -10.7
2020-Jan-18 01:32 040 27 gusting 55 -10.7
2020-Jan-18 01:22 050 28 gusting 55 -10.5
2020-Jan-18 01:12 050 32 gusting 56 -10.5
2020-Jan-18 01:02 050 27 gusting 71 -10.3
2020-Jan-18 00:52 050 25 gusting 62 -10.4
2020-Jan-18 00:42 050 26 gusting 53 -10.4
2020-Jan-18 00:32 050 29 gusting 67 -10.7
2020-Jan-18 00:22 050 29 gusting 60 -10.7
2020-Jan-18 00:12 050 32 gusting 59 -10.6
2020-Jan-17 23:52 050 38 gusting 68 -10.8
2020-Jan-17 23:42 050 35 gusting 65 -10.6
2020-Jan-17 23:32 050 29 gusting 62 -10.6
2020-Jan-17 23:22 050 33 gusting 61 -10.9
2020-Jan-17 23:12 050 34 gusting 61 -10.9
2020-Jan-17 23:02 050 29 gusting 62 -10.8
2020-Jan-17 22:52 050 32 gusting 60 -10.8
2020-Jan-17 22:42 050 33 gusting 62 -10.9
2020-Jan-17 22:32 040 35 gusting 58 -10.8
2020-Jan-17 22:22 050 32 gusting 53 -11.0
2020-Jan-17 22:12 050 34 gusting 58 -11.2
2020-Jan-17 22:02 050 29 gusting 60 -11.2
2020-Jan-17 21:52 050 32 gusting 55 -11.3
2020-Jan-17 21:42 050 28 gusting 48 -11.4
2020-Jan-17 21:32 050 28 gusting 51 -11.3
2020-Jan-17 21:22 050 31 gusting 55 -11.3
2020-Jan-17 21:12 050 34 gusting 62 -11.4
2020-Jan-17 21:02 050 28 gusting 48 -11.3
2020-Jan-17 20:52 050 29 gusting 54 -11.4
2020-Jan-17 20:42 050 31 gusting 48 -11.5
2020-Jan-17 20:32 050 38 gusting 63 -11.6
2020-Jan-17 20:22 050 34 gusting 73 -11.4
2020-Jan-17 20:12 050 34 gusting 60 -11.6
2020-Jan-17 20:02 050 29 gusting 58 -11.6
2020-Jan-17 19:52 050 33 gusting 58 -11.7
2020-Jan-17 19:42 050 31 gusting 58 -11.7
2020-Jan-17 19:32 050 31 gusting 54 -11.7
2020-Jan-17 19:23 050 27 gusting 48 -11.8
2020-Jan-17 19:12 050 32 gusting 55 -11.8
2020-Jan-17 19:02 050 29 gusting 52 -11.8
2020-Jan-17 18:52 040 32 gusting 61 -11.8
2020-Jan-17 18:42 050 33 gusting 62 -11.9
2020-Jan-17 18:32 050 28 gusting 47 -12.0
2020-Jan-17 18:22 040 34 gusting 53 -12.0
2020-Jan-17 18:12 050 31 gusting 62 -12.0
2020-Jan-17 18:02 050 25 gusting 49 -12.0
2020-Jan-17 17:52 050 32 gusting 55 -12.1
2020-Jan-17 17:42 050 34 gusting 53 -12.1
2020-Jan-17 17:32 050 27 gusting 52 -12.0
2020-Jan-17 17:22 050 33 gusting 52 -12.1
2020-Jan-17 17:12 050 27 gusting 48 -12.1
2020-Jan-17 17:02 050 24 gusting 47 -12.0
2020-Jan-17 16:52 040 20 gusting 41 -11.9
2020-Jan-17 16:42 060 15 gusting 44 -11.8
2020-Jan-17 16:32 050 18 gusting 39 -11.9
2020-Jan-17 16:22 050 17 gusting 44 -11.8
2020-Jan-17 16:13 070 13 gusting 27 -11.7
2020-Jan-17 16:02 050 11 gusting 40 -11.6
2020-Jan-17 15:52 040 14 gusting 40 -11.7
2020-Jan-17 15:42 060 13 gusting 34 -11.7
2020-Jan-17 15:32 020 18 gusting 33 -11.7
2020-Jan-17 15:22 020 20 gusting 40 -11.8
2020-Jan-17 15:12 050 18 gusting 40 -11.8
2020-Jan-17 15:02 050 20 gusting 44 -11.7
2020-Jan-17 14:52 040 25 gusting 48 -11.7
2020-Jan-17 14:42 040 22 gusting 52 -11.7
2020-Jan-17 14:32 030 22 gusting 46 -11.8
2020-Jan-17 14:22 040 20 gusting 55 -11.8
2020-Jan-17 14:12 040 27 gusting 67 -11.8
2020-Jan-17 14:02 050 25 gusting 49 -11.8
2020-Jan-17 13:52 040 24 gusting 55 -11.8
2020-Jan-17 13:42 040 20 gusting 55 -11.7
2020-Jan-17 13:32 040 27 gusting 47 -12.0
2020-Jan-17 13:22 040 27 gusting 44 -12.0
2020-Jan-17 13:12 040 27 gusting 60 -12.0
2020-Jan-17 13:02 030 32 gusting 66 -11.9
2020-Jan-17 12:52 040 27 gusting 47 -12.0
2020-Jan-17 12:42 030 26 gusting 55 -12.0
2020-Jan-17 12:32 040 27 gusting 56 -12.0
2020-Jan-17 12:22 040 29 gusting 58 -11.9
2020-Jan-17 12:12 040 25 gusting 54 -11.9
2020-Jan-17 12:02 040 24 gusting 59 -11.9
2020-Jan-17 11:52 040 29 gusting 62 -12.0
2020-Jan-17 11:42 040 26 gusting 52 -12.0
2020-Jan-17 11:32 050 19 gusting 42 -11.9
2020-Jan-17 11:22 040 21 gusting 44 -12.0
2020-Jan-17 11:12 040 20 gusting 42 -12.0
2020-Jan-17 11:02 040 20 gusting 54 -11.9
2020-Jan-17 10:52 050 22 gusting 41 -11.9
2020-Jan-17 10:42 040 24 gusting 42 -11.9
2020-Jan-17 10:32 040 22 gusting 41 -11.8
2020-Jan-17 10:22 040 22 gusting 41 -11.8
2020-Jan-17 10:12 030 24 gusting 48 -11.8
2020-Jan-17 10:02 040 26 gusting 42 -11.8
2020-Jan-17 09:52 030 22 gusting 46 -11.8
2020-Jan-17 09:42 040 25 gusting 55 -11.8
2020-Jan-17 09:32 030 31 gusting 66 -11.7
2020-Jan-17 09:22 030 26 gusting 48 -11.7
2020-Jan-17 09:12 040 27 gusting 48 -11.7
2020-Jan-17 09:02 040 19 gusting 44 -11.6
2020-Jan-17 08:52 040 13 gusting 29 -11.5
2020-Jan-17 08:42 030 13 gusting 33 -11.6
2020-Jan-17 08:32 040 24 gusting 47 -11.7
2020-Jan-17 08:22 030 19 gusting 40 -11.6
2020-Jan-17 08:12 040 19 gusting 45 -11.6
2020-Jan-17 08:02 030 19 gusting 33 -11.5
2020-Jan-17 07:52 040 21 gusting 41 -11.5
2020-Jan-17 07:42 040 27 gusting 48 -11.5
2020-Jan-17 07:32 050 28 gusting 54 -11.4
2020-Jan-17 07:22 040 31 gusting 52 -11.3
2020-Jan-17 07:12 040 29 gusting 60 -11.2
2020-Jan-17 07:02 040 31 gusting 59 -11.3
2020-Jan-17 06:52 040 26 gusting 59 -11.2
2020-Jan-17 06:42 030 25 gusting 49 -11.2
2020-Jan-17 06:32 040 24 gusting 45 -11.1
2020-Jan-17 06:22 050 27 gusting 60 -11.1
2020-Jan-17 06:12 050 29 gusting 55 -11.3
2020-Jan-17 06:02 050 27 gusting 54 -11.2
2020-Jan-17 05:52 050 27 gusting 47 -11.2
2020-Jan-17 05:42 040 27 gusting 54 -11.2
2020-Jan-17 05:32 050 27 gusting 54 -11.1
2020-Jan-17 05:22 040 20 gusting 46 -11.0
2020-Jan-17 05:12 040 15 gusting 39 -10.8
2020-Jan-17 05:02 050 17 gusting 44 -10.8
2020-Jan-17 04:52 040 13 gusting 34 -10.7
2020-Jan-17 04:42 330 19 gusting 46 -10.6
2020-Jan-17 04:32 310 13 gusting 35 -10.6
2020-Jan-17 04:22 040 19 gusting 55 -10.6
2020-Jan-17 04:12 360 14 gusting 48 -10.5
2020-Jan-17 04:02 010 18 gusting 45 -10.5
2020-Jan-17 03:52 340 14 gusting 34 -10.4
2020-Jan-17 03:42 010 15 gusting 32 -10.4
2020-Jan-17 03:32 240 12 gusting 25 -10.2
2020-Jan-17 03:22 330 18 gusting 41 -10.3
2020-Jan-17 03:12 330 15 gusting 42 -10.2
2020-Jan-17 03:02 340 12 gusting 34 -10.2
2020-Jan-17 02:52 220 13 gusting 47 -10.1
2020-Jan-17 02:42 340 8 gusting 33 -10.2
2020-Jan-17 02:32 320 17 gusting 36 -10.2
2020-Jan-17 02:22 250 13 gusting 34 -9.9
2020-Jan-17 02:12 270 9 gusting 48 -10.1
2020-Jan-17 02:02 350 13 gusting 27 -10.2
2020-Jan-17 01:52 340 13 gusting 29 -10.1
2020-Jan-17 01:42 310 13 gusting 36 -9.9
2020-Jan-17 01:32 320 12 gusting 34 -10.0
2020-Jan-17 01:22 340 15 gusting 38 -10.1
2020-Jan-17 01:12 350 15 gusting 34 -9.9
2020-Jan-17 01:02 210 13 gusting 27 -9.8
2020-Jan-17 00:52 200 8 gusting 22 -9.6
2020-Jan-17 00:42 340 15 gusting 42 -9.8
2020-Jan-17 00:32 320 11 gusting 31 -9.6
2020-Jan-17 00:22 350 7 gusting 28 -9.6
2020-Jan-17 00:12 350 12 gusting 32 -9.6
2020-Jan-16 23:52 220 14 gusting 34 -9.3
2020-Jan-16 23:42 030 6 gusting 19 -9.5
2020-Jan-16 23:32 330 13 gusting 34 -9.6
2020-Jan-16 23:22 310 17 gusting 36 -9.7
2020-Jan-16 23:12 340 13 gusting 34 -9.8
2020-Jan-16 23:02 330 21 gusting 49 -10.0
2020-Jan-16 22:52 320 20 gusting 48 -10.0
2020-Jan-16 22:42 340 19 gusting 38 -10.0
2020-Jan-16 22:32 330 20 gusting 44 -9.9
2020-Jan-16 22:22 010 11 gusting 36 -9.6
2020-Jan-16 22:12 280 12 gusting 25 -9.7
2020-Jan-16 22:02 280 20 gusting 48 -9.8
2020-Jan-16 21:52 300 13 gusting 31 -9.8
2020-Jan-16 21:42 280 22 gusting 53 -9.8
2020-Jan-16 21:32 320 20 gusting 44 -9.8
2020-Jan-16 21:22 350 14 gusting 51 -9.8
2020-Jan-16 21:12 310 20 gusting 40 -9.9
2020-Jan-16 21:02 290 20 gusting 55 -9.8
2020-Jan-16 20:52 330 14 gusting 61 -9.8
2020-Jan-16 20:42 310 25 gusting 55 -9.8
2020-Jan-16 20:32 250 17 gusting 40 -9.6
2020-Jan-16 20:22 300 20 gusting 52 -9.7
2020-Jan-16 20:12 260 17 gusting 36 -9.6
2020-Jan-16 20:02 320 20 gusting 62 -9.8
2020-Jan-16 19:52 280 14 gusting 40 -9.8
2020-Jan-16 19:42 280 21 gusting 68 -9.7
2020-Jan-16 19:33 300 22 gusting 67 -9.9
2020-Jan-16 19:22 320 20 gusting 60 -9.9
2020-Jan-16 19:13 270 25 gusting 56 -9.9
2020-Jan-16 19:02 290 26 gusting 73 -10.1
2020-Jan-16 18:52 280 25 gusting 59 -10.2
2020-Jan-16 18:42 330 21 gusting 51 -10.2
2020-Jan-16 18:32 310 24 gusting 56 -10.2
2020-Jan-16 18:22 300 25 gusting 62 -10.2
2020-Jan-16 18:12 260 20 gusting 58 -10.3
2020-Jan-16 18:02 280 25 gusting 76 -10.1
2020-Jan-16 17:52 280 31 gusting 62 -10.1
2020-Jan-16 17:42 300 27 gusting 78 -10.1
2020-Jan-16 17:32 300 25 gusting 78 -10.3
2020-Jan-16 17:22 300 34 gusting 78 -10.3
2020-Jan-16 17:12 320 27 gusting 78 -10.4
2020-Jan-16 17:02 320 25 gusting 76 -10.1
2020-Jan-16 16:52 330 29 gusting 78 -10.2
2020-Jan-16 16:42 340 24 gusting 68 -10.2
2020-Jan-16 16:32 310 33 gusting 78 -10.2
2020-Jan-16 16:22 330 32 gusting 78 -10.3
2020-Jan-16 16:12 330 29 gusting 59 -10.4
2020-Jan-16 16:02 350 33 gusting 69 -10.5
2020-Jan-16 15:52 320 24 gusting 78 -10.2
2020-Jan-16 15:42 340 22 gusting 59 -10.2
2020-Jan-16 15:32 300 24 gusting 68 -10.2
2020-Jan-16 15:22 330 25 gusting 74 -10.0
2020-Jan-16 15:12 310 22 gusting 59 -10.1
2020-Jan-16 15:02 300 28 gusting 78 -10.1